Ce_breeze — ELSQ7 — position and weather

sailwx.info

Track history (hours):
 
Tides and Currents Weather Stations Pressure Air Temp Water Temp Dewpoint Dewpoint Depression Visibility Wind Speed Wind Dir Waves Ship Positions

Ce_breeze

Last reported at 2016-May-12 14:25 UTC. Time now 2016-May-30 18:21 UTC.
Position N 40°57' E 028°59'.
Warning: this ship's position is 18 days out of date.

Length 240 m; draft 8 m.

Type: Tanker. MMSI: 636010400.

Date/timePositionNaut miles runAvg speedWind from/ knotsBaromVisibWave heightAir tempDewpointWater temp
2016-May-12 14:25N 40°57' E 028°59'4 0.3
2016-May-11 21:34N 40°56' E 028°53'2 2.0
2016-May-11 20:33N 40°54' E 028°51'9 8.9
2016-May-11 19:33N 40°47' E 028°45'5710.6
2016-May-11 14:06N 40°40' E 027°30'218 7.3
2016-May-10 08:18N 37°51' E 024°33'911.3
2016-May-10 07:33N 37°46' E 024°24'2210.9
2016-May-10 05:33N 37°36' E 023°60'1211.8
2016-May-10 04:34N 37°39' E 023°46'1111.0
2016-May-10 03:34N 37°48' E 023°37'7 6.6
2016-May-10 02:33N 37°50' E 023°30'0 0.0
2016-May-10 01:33N 37°50' E 023°30'0 0.0
2016-May-10 00:33N 37°50' E 023°30'0 0.0
2016-May-09 23:33N 37°50' E 023°30'0 0.0
2016-May-09 22:33N 37°50' E 023°30'0 0.1
2016-May-09 21:33N 37°50' E 023°30'0 0.0
2016-May-09 20:33N 37°50' E 023°30'0 0.0
2016-May-09 19:33N 37°51' E 023°30'0 0.0
2016-May-09 18:33N 37°51' E 023°30'0 0.0
2016-May-09 17:33N 37°51' E 023°30'0 0.0
2016-May-09 16:33N 37°51' E 023°30'0 0.0
2016-May-09 15:33N 37°51' E 023°30'0 0.0
2016-May-09 14:33N 37°51' E 023°30'0 0.0
2016-May-09 13:33N 37°50' E 023°30'0 0.0
2016-May-09 12:33N 37°50' E 023°30'0 0.0
2016-May-09 11:33N 37°50' E 023°30'0 0.2
2016-May-09 10:33N 37°50' E 023°30'0 0.1
2016-May-09 09:33N 37°50' E 023°30'0 0.1
2016-May-09 08:33N 37°50' E 023°30'0 0.0
2016-May-09 07:33N 37°50' E 023°30'0 0.1
2016-May-09 06:33N 37°50' E 023°30'0 0.1
2016-May-09 05:33N 37°50' E 023°30'0 0.1
2016-May-09 04:33N 37°50' E 023°30'0 0.0
2016-May-09 03:34N 37°50' E 023°30'0 0.0
2016-May-09 02:33N 37°50' E 023°30'0 0.0
2016-May-09 01:33N 37°50' E 023°30'0 0.0
2016-May-09 00:33N 37°50' E 023°30'0 0.0
2016-May-08 23:33N 37°50' E 023°30'0 0.0
2016-May-08 22:33N 37°50' E 023°30'0 0.0
2016-May-08 21:33N 37°50' E 023°30'0 0.0
2016-May-08 20:33N 37°50' E 023°30'0 0.1
2016-May-08 19:33N 37°51' E 023°30'0 0.0
2016-May-08 18:33N 37°51' E 023°30'0 0.0
2016-May-08 17:33N 37°51' E 023°30'0 0.0
2016-May-08 16:33N 37°51' E 023°30'0 0.0
2016-May-08 15:33N 37°51' E 023°30'0 0.1
2016-May-08 14:33N 37°51' E 023°30'0 0.0
2016-May-08 13:33N 37°51' E 023°30'0 0.1
2016-May-08 12:33N 37°51' E 023°30'0 0.1
2016-May-08 11:33N 37°51' E 023°30'0 0.2
2016-May-08 10:33N 37°51' E 023°30'0 0.0
2016-May-08 09:33N 37°50' E 023°30'0 0.0
2016-May-08 08:33N 37°50' E 023°30'0 0.0
2016-May-08 07:33N 37°50' E 023°30'0 0.0
2016-May-08 06:33N 37°50' E 023°30'0 0.0
2016-May-08 05:33N 37°50' E 023°30'0 0.0
2016-May-08 04:33N 37°50' E 023°30'0 0.0
2016-May-08 03:33N 37°50' E 023°30'0 0.0
2016-May-08 02:33N 37°50' E 023°30'0 0.0
2016-May-08 01:33N 37°50' E 023°30'0 0.0
2016-May-08 00:33N 37°50' E 023°30'0 0.0
2016-May-07 23:33N 37°50' E 023°30'0 0.0
2016-May-07 22:33N 37°50' E 023°30'0 0.0
2016-May-07 21:33N 37°50' E 023°30'0 0.1
2016-May-07 20:31N 37°50' E 023°30'0 0.1
2016-May-07 19:33N 37°51' E 023°30'0 0.0
2016-May-07 18:33N 37°51' E 023°30'0 0.0
2016-May-07 17:33N 37°51' E 023°30'0 0.0
2016-May-07 16:33N 37°51' E 023°30'0 0.1
2016-May-07 15:33N 37°51' E 023°30'1 1.2
2016-May-07 14:33N 37°50' E 023°31'6 5.7
2016-May-07 13:33N 37°50' E 023°39'1110.8
2016-May-07 12:33N 37°41' E 023°45'1110.9
2016-May-07 11:33N 37°30' E 023°45'1211.6
2016-May-07 10:33N 37°19' E 023°40'1111.0
2016-May-07 09:33N 37°09' E 023°35'3 2.9
2016-May-07 08:31N 37°06' E 023°35'0 0.1
2016-May-07 07:33N 37°06' E 023°35'0 0.2
2016-May-07 06:23N 37°06' E 023°35'0 0.2
2016-May-07 05:17N 37°06' E 023°35'0 0.2
2016-May-07 04:17N 37°06' E 023°35'0 0.2
2016-May-07 03:33N 37°07' E 023°35'1 0.2
2016-May-07 01:20N 37°07' E 023°35'0 0.2
2016-May-07 00:33N 37°07' E 023°35'0 0.3
2016-May-06 23:33N 37°07' E 023°35'0 0.2
2016-May-06 22:30N 37°08' E 023°35'0 0.1
2016-May-06 21:33N 37°08' E 023°35'0 0.1
2016-May-06 20:06N 37°07' E 023°35'0 0.3
2016-May-06 19:32N 37°07' E 023°35'0 0.3
2016-May-06 18:33N 37°07' E 023°34'0 0.4
2016-May-06 17:21N 37°07' E 023°34'2 0.3
2016-May-06 11:07N 37°06' E 023°37'1 1.0
2016-May-06 10:32N 37°07' E 023°37'3 1.0
2016-May-06 07:14N 37°10' E 023°37'1 1.1
2016-May-06 06:33N 37°11' E 023°37'1 1.2
2016-May-06 05:31N 37°12' E 023°37'1 1.2
2016-May-06 04:30N 37°13' E 023°36'1 0.7
2016-May-06 03:33N 37°14' E 023°36'1 0.4
2016-May-06 01:32N 37°14' E 023°35'0 0.3
2016-May-06 00:32N 37°15' E 023°35'0 0.1
2016-May-05 23:33N 37°15' E 023°35'0 0.1
2016-May-05 22:33N 37°14' E 023°35'0 0.1
2016-May-05 21:34N 37°14' E 023°35'0 0.1
2016-May-05 20:33N 37°14' E 023°35'0 0.2
2016-May-05 18:23N 37°14' E 023°35'0 0.4
2016-May-05 17:33N 37°15' E 023°35'1 0.5
2016-May-05 16:32N 37°15' E 023°36'1 0.6
2016-May-05 15:31N 37°15' E 023°37'1 0.7
2016-May-05 14:33N 37°16' E 023°38'1 1.0
2016-May-05 13:33N 37°16' E 023°39'1 1.0
2016-May-05 12:33N 37°16' E 023°40'1 1.1
2016-May-05 11:33N 37°17' E 023°41'1 1.2
2016-May-05 10:32N 37°18' E 023°42'2 1.7
2016-May-05 09:33N 37°19' E 023°43'9 9.2
2016-May-05 08:33N 37°28' E 023°45'1211.8
2016-May-05 07:33N 37°40' E 023°42'1211.5
2016-May-05 06:33N 37°51' E 023°36'7 7.4
2016-May-05 05:34N 37°57' E 023°33'5 4.5
2016-May-05 04:33N 38°01' E 023°36'0 0.0
2016-May-05 03:33N 38°01' E 023°36'0 0.0
2016-May-05 02:33N 38°01' E 023°36'0 0.0
2016-May-05 01:33N 38°01' E 023°36'0 0.0
2016-May-05 00:33N 38°01' E 023°36'0 0.0
2016-May-04 23:33N 38°01' E 023°36'0 0.0
2016-May-04 22:33N 38°01' E 023°36'0 0.0
2016-May-04 21:33N 38°01' E 023°36'0 0.0
2016-May-04 20:33N 38°01' E 023°36'0 0.0
2016-May-04 19:33N 38°01' E 023°36'0 0.0
2016-May-04 18:33N 38°01' E 023°36'0 0.0
2016-May-04 17:33N 38°01' E 023°36'0 0.0
2016-May-04 16:33N 38°01' E 023°36'0 0.0
2016-May-04 15:33N 38°01' E 023°36'0 0.0
2016-May-04 14:33N 38°01' E 023°36'0 0.0
2016-May-04 13:33N 38°01' E 023°36'0 0.0
2016-May-04 12:33N 38°01' E 023°36'0 0.0
2016-May-04 11:33N 38°01' E 023°36'0 0.0
2016-May-04 10:33N 38°01' E 023°36'0 0.0
2016-May-04 09:33N 38°01' E 023°36'0 0.0
2016-May-04 08:33N 38°01' E 023°36'0 0.0
2016-May-04 07:33N 38°01' E 023°36'0 0.0
2016-May-04 06:33N 38°01' E 023°36'0 0.0
2016-May-04 05:33N 38°01' E 023°36'0 0.0
2016-May-04 04:33N 38°01' E 023°36'0 0.0
2016-May-04 03:33N 38°01' E 023°36'0 0.0
2016-May-04 02:33N 38°01' E 023°36'0 0.0
2016-May-04 01:33N 38°01' E 023°36'0 0.0
2016-May-04 00:33N 38°01' E 023°36'0 0.0
2016-May-03 23:33N 38°01' E 023°36'0 0.0
2016-May-03 22:33N 38°01' E 023°36'0 0.0
2016-May-03 21:33N 38°01' E 023°36'0 0.0
2016-May-03 20:33N 38°01' E 023°36'0 0.0
2016-May-03 19:33N 38°01' E 023°36'0 0.0
2016-May-03 18:33N 38°01' E 023°36'0 0.2
2016-May-03 17:34N 38°01' E 023°35'3 3.0
2016-May-03 16:33N 38°01' E 023°32'0 0.1
2016-May-03 15:33N 38°01' E 023°32'0 0.0
2016-May-03 14:33N 38°01' E 023°32'1 1.1
2016-May-03 13:31N 38°02' E 023°31'0 0.0
2016-May-03 12:31N 38°02' E 023°31'0 0.0
2016-May-03 11:31N 38°02' E 023°31'0 0.0
2016-May-03 10:31N 38°02' E 023°31'0 0.0
2016-May-03 09:31N 38°02' E 023°31'0 0.0
2016-May-03 08:31N 38°02' E 023°31'0 0.0
2016-May-03 07:31N 38°02' E 023°31'0 0.0
2016-May-03 06:31N 38°02' E 023°31'0 0.0
2016-May-03 05:31N 38°02' E 023°31'0 0.0
2016-May-03 04:31N 38°02' E 023°31'0 0.0
2016-May-03 03:31N 38°02' E 023°31'0 0.0
2016-May-03 02:31N 38°02' E 023°31'0 0.0
2016-May-03 01:31N 38°02' E 023°31'0 0.0
2016-May-03 00:31N 38°02' E 023°31'0 0.0
2016-May-02 23:31N 38°02' E 023°31'0 0.0
2016-May-02 22:31N 38°02' E 023°31'0 0.0
2016-May-02 21:31N 38°02' E 023°31'0 0.0
2016-May-02 20:31N 38°02' E 023°31'0 0.0
2016-May-02 19:31N 38°02' E 023°31'0 0.0
2016-May-02 18:31N 38°02' E 023°31'0 0.0
2016-May-02 17:31N 38°02' E 023°31'0 0.0
2016-May-02 16:31N 38°02' E 023°31'0 0.0
2016-May-02 15:31N 38°02' E 023°31'0 0.0
2016-May-02 14:31N 38°02' E 023°31'  
Track history (hours):
 
Tides and Currents Weather Stations Pressure Air Temp Water Temp Dewpoint Dewpoint Depression Visibility Wind Speed Wind Dir Waves Ship Positions

Ce_breeze

Last reported at 2016-May-12 14:25 UTC. Time now 2016-May-30 18:21 UTC.
Position N 40°57' E 028°59'.
Warning: this ship's position is 18 days out of date.

Length 240 m; draft 8 m.

Type: Tanker. MMSI: 636010400.

Date/timePositionNaut miles runAvg speedWind from/ knotsBaromVisibWave heightAir tempDewpointWater temp
2016-May-12 14:25N 40°57' E 028°59'4 0.3
2016-May-11 21:34N 40°56' E 028°53'2 2.0
2016-May-11 20:33N 40°54' E 028°51'9 8.9
2016-May-11 19:33N 40°47' E 028°45'5710.6
2016-May-11 14:06N 40°40' E 027°30'218 7.3
2016-May-10 08:18N 37°51' E 024°33'911.3
2016-May-10 07:33N 37°46' E 024°24'2210.9
2016-May-10 05:33N 37°36' E 023°60'1211.8
2016-May-10 04:34N 37°39' E 023°46'1111.0
2016-May-10 03:34N 37°48' E 023°37'7 6.6
2016-May-10 02:33N 37°50' E 023°30'0 0.0
2016-May-10 01:33N 37°50' E 023°30'0 0.0
2016-May-10 00:33N 37°50' E 023°30'0 0.0
2016-May-09 23:33N 37°50' E 023°30'0 0.0
2016-May-09 22:33N 37°50' E 023°30'0 0.1
2016-May-09 21:33N 37°50' E 023°30'0 0.0
2016-May-09 20:33N 37°50' E 023°30'0 0.0
2016-May-09 19:33N 37°51' E 023°30'0 0.0
2016-May-09 18:33N 37°51' E 023°30'0 0.0
2016-May-09 17:33N 37°51' E 023°30'0 0.0
2016-May-09 16:33N 37°51' E 023°30'0 0.0
2016-May-09 15:33N 37°51' E 023°30'0 0.0
2016-May-09 14:33N 37°51' E 023°30'0 0.0
2016-May-09 13:33N 37°50' E 023°30'0 0.0
2016-May-09 12:33N 37°50' E 023°30'0 0.0
2016-May-09 11:33N 37°50' E 023°30'0 0.2
2016-May-09 10:33N 37°50' E 023°30'0 0.1
2016-May-09 09:33N 37°50' E 023°30'0 0.1
2016-May-09 08:33N 37°50' E 023°30'0 0.0
2016-May-09 07:33N 37°50' E 023°30'0 0.1
2016-May-09 06:33N 37°50' E 023°30'0 0.1
2016-May-09 05:33N 37°50' E 023°30'0 0.1
2016-May-09 04:33N 37°50' E 023°30'0 0.0
2016-May-09 03:34N 37°50' E 023°30'0 0.0
2016-May-09 02:33N 37°50' E 023°30'0 0.0
2016-May-09 01:33N 37°50' E 023°30'0 0.0
2016-May-09 00:33N 37°50' E 023°30'0 0.0
2016-May-08 23:33N 37°50' E 023°30'0 0.0
2016-May-08 22:33N 37°50' E 023°30'0 0.0
2016-May-08 21:33N 37°50' E 023°30'0 0.0
2016-May-08 20:33N 37°50' E 023°30'0 0.1
2016-May-08 19:33N 37°51' E 023°30'0 0.0
2016-May-08 18:33N 37°51' E 023°30'0 0.0
2016-May-08 17:33N 37°51' E 023°30'0 0.0
2016-May-08 16:33N 37°51' E 023°30'0 0.0
2016-May-08 15:33N 37°51' E 023°30'0 0.1
2016-May-08 14:33N 37°51' E 023°30'0 0.0
2016-May-08 13:33N 37°51' E 023°30'0 0.1
2016-May-08 12:33N 37°51' E 023°30'0 0.1
2016-May-08 11:33N 37°51' E 023°30'0 0.2
2016-May-08 10:33N 37°51' E 023°30'0 0.0
2016-May-08 09:33N 37°50' E 023°30'0 0.0
2016-May-08 08:33N 37°50' E 023°30'0 0.0
2016-May-08 07:33N 37°50' E 023°30'0 0.0
2016-May-08 06:33N 37°50' E 023°30'0 0.0
2016-May-08 05:33N 37°50' E 023°30'0 0.0
2016-May-08 04:33N 37°50' E 023°30'0 0.0
2016-May-08 03:33N 37°50' E 023°30'0 0.0
2016-May-08 02:33N 37°50' E 023°30'0 0.0
2016-May-08 01:33N 37°50' E 023°30'0 0.0
2016-May-08 00:33N 37°50' E 023°30'0 0.0
2016-May-07 23:33N 37°50' E 023°30'0 0.0
2016-May-07 22:33N 37°50' E 023°30'0 0.0
2016-May-07 21:33N 37°50' E 023°30'0 0.1
2016-May-07 20:31N 37°50' E 023°30'0 0.1
2016-May-07 19:33N 37°51' E 023°30'0 0.0
2016-May-07 18:33N 37°51' E 023°30'0 0.0
2016-May-07 17:33N 37°51' E 023°30'0 0.0
2016-May-07 16:33N 37°51' E 023°30'0 0.1
2016-May-07 15:33N 37°51' E 023°30'1 1.2
2016-May-07 14:33N 37°50' E 023°31'6 5.7
2016-May-07 13:33N 37°50' E 023°39'1110.8
2016-May-07 12:33N 37°41' E 023°45'1110.9
2016-May-07 11:33N 37°30' E 023°45'1211.6
2016-May-07 10:33N 37°19' E 023°40'1111.0
2016-May-07 09:33N 37°09' E 023°35'3 2.9
2016-May-07 08:31N 37°06' E 023°35'0 0.1
2016-May-07 07:33N 37°06' E 023°35'0 0.2
2016-May-07 06:23N 37°06' E 023°35'0 0.2
2016-May-07 05:17N 37°06' E 023°35'0 0.2
2016-May-07 04:17N 37°06' E 023°35'0 0.2
2016-May-07 03:33N 37°07' E 023°35'1 0.2
2016-May-07 01:20N 37°07' E 023°35'0 0.2
2016-May-07 00:33N 37°07' E 023°35'0 0.3
2016-May-06 23:33N 37°07' E 023°35'0 0.2
2016-May-06 22:30N 37°08' E 023°35'0 0.1
2016-May-06 21:33N 37°08' E 023°35'0 0.1
2016-May-06 20:06N 37°07' E 023°35'0 0.3
2016-May-06 19:32N 37°07' E 023°35'0 0.3
2016-May-06 18:33N 37°07' E 023°34'0 0.4
2016-May-06 17:21N 37°07' E 023°34'2 0.3
2016-May-06 11:07N 37°06' E 023°37'1 1.0
2016-May-06 10:32N 37°07' E 023°37'3 1.0
2016-May-06 07:14N 37°10' E 023°37'1 1.1
2016-May-06 06:33N 37°11' E 023°37'1 1.2
2016-May-06 05:31N 37°12' E 023°37'1 1.2
2016-May-06 04:30N 37°13' E 023°36'1 0.7
2016-May-06 03:33N 37°14' E 023°36'1 0.4
2016-May-06 01:32N 37°14' E 023°35'0 0.3
2016-May-06 00:32N 37°15' E 023°35'0 0.1
2016-May-05 23:33N 37°15' E 023°35'0 0.1
2016-May-05 22:33N 37°14' E 023°35'0 0.1
2016-May-05 21:34N 37°14' E 023°35'0 0.1
2016-May-05 20:33N 37°14' E 023°35'0 0.2
2016-May-05 18:23N 37°14' E 023°35'0 0.4
2016-May-05 17:33N 37°15' E 023°35'1 0.5
2016-May-05 16:32N 37°15' E 023°36'1 0.6
2016-May-05 15:31N 37°15' E 023°37'1 0.7
2016-May-05 14:33N 37°16' E 023°38'1 1.0
2016-May-05 13:33N 37°16' E 023°39'1 1.0
2016-May-05 12:33N 37°16' E 023°40'1 1.1
2016-May-05 11:33N 37°17' E 023°41'1 1.2
2016-May-05 10:32N 37°18' E 023°42'2 1.7
2016-May-05 09:33N 37°19' E 023°43'9 9.2
2016-May-05 08:33N 37°28' E 023°45'1211.8
2016-May-05 07:33N 37°40' E 023°42'1211.5
2016-May-05 06:33N 37°51' E 023°36'7 7.4
2016-May-05 05:34N 37°57' E 023°33'5 4.5
2016-May-05 04:33N 38°01' E 023°36'0 0.0
2016-May-05 03:33N 38°01' E 023°36'0 0.0
2016-May-05 02:33N 38°01' E 023°36'0 0.0
2016-May-05 01:33N 38°01' E 023°36'0 0.0
2016-May-05 00:33N 38°01' E 023°36'0 0.0
2016-May-04 23:33N 38°01' E 023°36'0 0.0
2016-May-04 22:33N 38°01' E 023°36'0 0.0
2016-May-04 21:33N 38°01' E 023°36'0 0.0
2016-May-04 20:33N 38°01' E 023°36'0 0.0
2016-May-04 19:33N 38°01' E 023°36'0 0.0
2016-May-04 18:33N 38°01' E 023°36'0 0.0
2016-May-04 17:33N 38°01' E 023°36'0 0.0
2016-May-04 16:33N 38°01' E 023°36'0 0.0
2016-May-04 15:33N 38°01' E 023°36'0 0.0
2016-May-04 14:33N 38°01' E 023°36'0 0.0
2016-May-04 13:33N 38°01' E 023°36'0 0.0
2016-May-04 12:33N 38°01' E 023°36'0 0.0
2016-May-04 11:33N 38°01' E 023°36'0 0.0
2016-May-04 10:33N 38°01' E 023°36'0 0.0
2016-May-04 09:33N 38°01' E 023°36'0 0.0
2016-May-04 08:33N 38°01' E 023°36'0 0.0
2016-May-04 07:33N 38°01' E 023°36'0 0.0
2016-May-04 06:33N 38°01' E 023°36'0 0.0
2016-May-04 05:33N 38°01' E 023°36'0 0.0
2016-May-04 04:33N 38°01' E 023°36'0 0.0
2016-May-04 03:33N 38°01' E 023°36'0 0.0
2016-May-04 02:33N 38°01' E 023°36'0 0.0
2016-May-04 01:33N 38°01' E 023°36'0 0.0
2016-May-04 00:33N 38°01' E 023°36'0 0.0
2016-May-03 23:33N 38°01' E 023°36'0 0.0
2016-May-03 22:33N 38°01' E 023°36'0 0.0
2016-May-03 21:33N 38°01' E 023°36'0 0.0
2016-May-03 20:33N 38°01' E 023°36'0 0.0
2016-May-03 19:33N 38°01' E 023°36'0 0.0
2016-May-03 18:33N 38°01' E 023°36'0 0.2
2016-May-03 17:34N 38°01' E 023°35'3 3.0
2016-May-03 16:33N 38°01' E 023°32'0 0.1
2016-May-03 15:33N 38°01' E 023°32'0 0.0
2016-May-03 14:33N 38°01' E 023°32'1 1.1
2016-May-03 13:31N 38°02' E 023°31'0 0.0
2016-May-03 12:31N 38°02' E 023°31'0 0.0
2016-May-03 11:31N 38°02' E 023°31'0 0.0
2016-May-03 10:31N 38°02' E 023°31'0 0.0
2016-May-03 09:31N 38°02' E 023°31'0 0.0
2016-May-03 08:31N 38°02' E 023°31'0 0.0
2016-May-03 07:31N 38°02' E 023°31'0 0.0
2016-May-03 06:31N 38°02' E 023°31'0 0.0
2016-May-03 05:31N 38°02' E 023°31'0 0.0
2016-May-03 04:31N 38°02' E 023°31'0 0.0
2016-May-03 03:31N 38°02' E 023°31'0 0.0
2016-May-03 02:31N 38°02' E 023°31'0 0.0
2016-May-03 01:31N 38°02' E 023°31'0 0.0
2016-May-03 00:31N 38°02' E 023°31'0 0.0
2016-May-02 23:31N 38°02' E 023°31'0 0.0
2016-May-02 22:31N 38°02' E 023°31'0 0.0
2016-May-02 21:31N 38°02' E 023°31'0 0.0
2016-May-02 20:31N 38°02' E 023°31'0 0.0
2016-May-02 19:31N 38°02' E 023°31'0 0.0
2016-May-02 18:31N 38°02' E 023°31'0 0.0
2016-May-02 17:31N 38°02' E 023°31'0 0.0
2016-May-02 16:31N 38°02' E 023°31'0 0.0
2016-May-02 15:31N 38°02' E 023°31'0 0.0
2016-May-02 14:31N 38°02' E 023°31'  

Dump ship's entire track history